createdAt,value
2018-03-17T00:02:14.905Z,98844.54
2018-03-17T00:04:41.262Z,98854.84
2018-03-17T00:07:07.702Z,98863.78
2018-03-17T00:09:34.057Z,98872.39
2018-03-17T00:12:00.422Z,98864.13
2018-03-17T00:14:26.790Z,98863.41
2018-03-17T00:16:53.206Z,98875.58
2018-03-17T00:19:19.594Z,98862.12
2018-03-17T00:21:45.942Z,98867.40
2018-03-17T00:24:12.282Z,98865.44
2018-03-17T00:26:38.647Z,98871.91
2018-03-17T00:29:04.978Z,98868.04
2018-03-17T00:31:31.338Z,98870.22
2018-03-17T00:33:57.702Z,98863.14
2018-03-17T00:36:24.029Z,98863.02
2018-03-17T00:38:50.370Z,98857.70
2018-03-17T00:41:16.785Z,98860.53
2018-03-17T00:43:43.158Z,98865.64
2018-03-17T00:46:12.472Z,98860.63
2018-03-17T00:48:38.979Z,98862.92
2018-03-17T00:51:05.359Z,98862.97
2018-03-17T00:53:31.742Z,98861.77
2018-03-17T00:55:58.148Z,98871.66
2018-03-17T00:58:24.550Z,98871.44
2018-03-17T01:00:50.998Z,98865.13
2018-03-17T01:03:17.426Z,98859.30
2018-03-17T01:05:43.858Z,98855.13
2018-03-17T01:08:10.278Z,98864.31
2018-03-17T01:10:36.658Z,98864.27
2018-03-17T01:13:03.074Z,98857.14
2018-03-17T01:15:29.449Z,98854.33
2018-03-17T01:17:55.966Z,98851.11
2018-03-17T01:20:22.390Z,98836.77
2018-03-17T01:22:48.833Z,98838.91
2018-03-17T01:25:15.198Z,98833.53
2018-03-17T01:27:41.576Z,98830.00
2018-03-17T01:30:07.954Z,98824.84
2018-03-17T01:32:34.443Z,98829.13
2018-03-17T01:35:00.794Z,98831.15
2018-03-17T01:37:27.145Z,98832.29
2018-03-17T01:39:53.751Z,98837.31
2018-03-17T01:42:20.353Z,98841.48
2018-03-17T01:44:46.697Z,98833.89
2018-03-17T01:47:13.078Z,98843.33
2018-03-17T01:49:39.454Z,98840.16
2018-03-17T01:52:05.797Z,98841.66
2018-03-17T01:54:32.297Z,98828.13
2018-03-17T01:56:58.750Z,98833.28
2018-03-17T01:59:25.292Z,98831.31
2018-03-17T02:01:51.705Z,98822.56
2018-03-17T02:04:18.106Z,98822.56
2018-03-17T02:06:44.465Z,98827.20
2018-03-17T02:09:10.929Z,98825.20
2018-03-17T02:11:37.305Z,98834.51
2018-03-17T02:14:03.737Z,98822.56
2018-03-17T02:16:30.122Z,98822.01
2018-03-17T02:18:56.517Z,98826.54
2018-03-17T02:21:22.906Z,98822.01
2018-03-17T02:23:49.325Z,98822.23
2018-03-17T02:26:15.697Z,98815.98
2018-03-17T02:28:42.117Z,98820.39
2018-03-17T02:31:08.484Z,98829.33
2018-03-17T02:33:34.922Z,98827.78
2018-03-17T02:36:01.263Z,98815.58
2018-03-17T02:38:27.662Z,98816.38
2018-03-17T02:40:54.046Z,98805.48
2018-03-17T02:43:20.409Z,98803.91
2018-03-17T02:45:46.796Z,98806.03
2018-03-17T02:48:13.222Z,98813.47
2018-03-17T02:50:39.574Z,98815.20
2018-03-17T02:53:05.915Z,98816.29
2018-03-17T02:55:32.313Z,98818.25
2018-03-17T02:57:58.669Z,98817.03
2018-03-17T03:00:25.059Z,98815.44
2018-03-17T03:02:51.418Z,98819.50
2018-03-17T03:05:17.790Z,98826.31
2018-03-17T03:07:44.130Z,98818.92
2018-03-17T03:10:10.506Z,98813.11
2018-03-17T03:12:36.878Z,98817.09
2018-03-17T03:15:03.294Z,98815.78
2018-03-17T03:17:29.671Z,98810.95
2018-03-17T03:19:56.163Z,98826.13
2018-03-17T03:22:22.530Z,98827.24
2018-03-17T03:24:48.881Z,98822.97
2018-03-17T03:27:15.278Z,98823.43
2018-03-17T03:29:41.646Z,98823.73
2018-03-17T03:32:08.002Z,98818.13
2018-03-17T03:34:34.409Z,98828.17
2018-03-17T03:37:00.768Z,98836.69
2018-03-17T03:39:27.201Z,98840.81
2018-03-17T03:41:53.583Z,98835.78
2018-03-17T03:44:20.083Z,98836.76
2018-03-17T03:46:46.520Z,98831.14
2018-03-17T03:49:12.934Z,98834.63
2018-03-17T03:51:39.445Z,98843.27
2018-03-17T03:54:05.857Z,98827.83
2018-03-17T03:56:32.261Z,98837.09
2018-03-17T03:58:58.654Z,98837.41
2018-03-17T04:01:25.078Z,98839.73
2018-03-17T04:03:51.509Z,98837.16
2018-03-17T04:06:18.049Z,98843.25
2018-03-17T04:08:44.462Z,98842.53
2018-03-17T04:11:10.873Z,98837.33
2018-03-17T04:13:37.309Z,98836.87
2018-03-17T04:16:03.742Z,98832.44
2018-03-17T04:18:30.166Z,98834.64
2018-03-17T04:20:56.582Z,98835.61
2018-03-17T04:23:23.018Z,98844.29
2018-03-17T04:25:49.381Z,98848.74
2018-03-17T04:28:15.766Z,98854.88
2018-03-17T04:30:42.145Z,98849.05
2018-03-17T04:33:08.494Z,98845.60
2018-03-17T04:35:34.857Z,98846.27
2018-03-17T04:38:01.262Z,98844.87
2018-03-17T04:40:27.709Z,98848.48
2018-03-17T04:42:54.117Z,98843.42
2018-03-17T04:45:20.520Z,98841.91
2018-03-17T04:47:46.873Z,98843.11
2018-03-17T04:50:13.223Z,98841.84
2018-03-17T04:52:39.593Z,98831.16
2018-03-17T04:55:05.957Z,98824.07
2018-03-17T04:57:32.405Z,98815.18
2018-03-17T04:59:58.815Z,98821.61
2018-03-17T05:02:25.198Z,98819.87
2018-03-17T05:04:51.564Z,98828.13
2018-03-17T05:07:17.977Z,98829.33
2018-03-17T05:09:44.374Z,98825.81
2018-03-17T05:12:10.766Z,98821.97
2018-03-17T05:14:37.131Z,98821.97
2018-03-17T05:17:03.539Z,98810.33
2018-03-17T05:19:29.910Z,98817.33
2018-03-17T05:21:56.294Z,98809.02
2018-03-17T05:24:22.658Z,98815.16
2018-03-17T05:26:49.079Z,98806.38
2018-03-17T05:29:15.440Z,98816.69
2018-03-17T05:31:41.971Z,98818.34
2018-03-17T05:34:08.357Z,98817.43
2018-03-17T05:36:34.814Z,98810.46
2018-03-17T05:39:01.226Z,98822.27
2018-03-17T05:41:27.887Z,98822.56
2018-03-17T05:43:54.305Z,98827.36
2018-03-17T05:46:20.753Z,98816.38
2018-03-17T05:48:47.145Z,98827.06
2018-03-17T05:51:13.548Z,98827.27
2018-03-17T05:53:39.886Z,98829.27
2018-03-17T05:56:06.243Z,98833.80
2018-03-17T05:58:32.761Z,98832.34
2018-03-17T06:00:59.210Z,98832.77
2018-03-17T06:03:25.633Z,98830.64
2018-03-17T06:05:51.990Z,98830.48
2018-03-17T06:08:18.366Z,98825.30
2018-03-17T06:10:44.758Z,98828.56
2018-03-17T06:13:11.145Z,98817.92
2018-03-17T06:15:37.522Z,98811.67
2018-03-17T06:18:03.914Z,98808.62
2018-03-17T06:20:30.306Z,98808.87
2018-03-17T06:22:56.711Z,98811.77
2018-03-17T06:25:23.095Z,98823.51
2018-03-17T06:27:49.532Z,98822.59
2018-03-17T06:30:15.939Z,98819.63
2018-03-17T06:32:42.335Z,98825.94
2018-03-17T06:35:08.722Z,98825.59
2018-03-17T06:37:35.114Z,98825.83
2018-03-17T06:40:01.569Z,98815.92
2018-03-17T06:42:28.064Z,98820.02
2018-03-17T06:44:54.463Z,98809.39
2018-03-17T06:47:21.075Z,98817.77
2018-03-17T06:49:47.451Z,98816.60
2018-03-17T06:52:13.870Z,98803.78
2018-03-17T06:54:40.245Z,98805.45
2018-03-17T06:57:06.637Z,98801.62
2018-03-17T06:59:33.149Z,98799.73
2018-03-17T07:01:59.544Z,98807.41
2018-03-17T07:04:26.293Z,98814.27
2018-03-17T07:06:52.691Z,98799.98
2018-03-17T07:09:19.077Z,98796.47
2018-03-17T07:11:45.714Z,98798.62
2018-03-17T07:14:12.142Z,98799.30
2018-03-17T07:16:38.638Z,98801.92
2018-03-17T07:19:05.057Z,98796.89
2018-03-17T07:21:31.510Z,98788.58
2018-03-17T07:23:57.916Z,98791.64
2018-03-17T07:26:24.379Z,98789.14
2018-03-17T07:28:50.898Z,98789.73
2018-03-17T07:31:17.327Z,98796.42
2018-03-17T07:33:43.750Z,98801.20
2018-03-17T07:36:10.138Z,98795.40
2018-03-17T07:38:36.510Z,98802.39
2018-03-17T07:41:02.954Z,98805.73
2018-03-17T07:43:29.354Z,98783.44
2018-03-17T07:45:55.750Z,98774.17
2018-03-17T07:48:22.153Z,98779.81
2018-03-17T07:50:48.501Z,98791.34
2018-03-17T07:53:14.878Z,98791.55
2018-03-17T07:55:41.241Z,98782.78
2018-03-17T07:58:07.706Z,98792.19
2018-03-17T08:00:34.098Z,98775.88
2018-03-17T08:03:00.530Z,98761.35
2018-03-17T08:05:26.973Z,98755.96
2018-03-17T08:07:53.371Z,98752.47
2018-03-17T08:10:19.748Z,98762.44
2018-03-17T08:12:46.177Z,98761.73
2018-03-17T08:15:12.609Z,98766.22
2018-03-17T08:17:38.986Z,98762.62
2018-03-17T08:20:05.445Z,98751.64
2018-03-17T08:22:32.213Z,98750.62
2018-03-17T08:24:58.614Z,98752.03
2018-03-17T08:27:25.025Z,98741.14
2018-03-17T08:29:51.496Z,98730.45
2018-03-17T08:32:17.870Z,98725.05
2018-03-17T08:34:44.280Z,98713.34
2018-03-17T08:37:10.758Z,98708.69
2018-03-17T08:39:37.294Z,98715.72
2018-03-17T08:42:03.669Z,98720.42
2018-03-17T08:44:30.034Z,98717.60
2018-03-17T08:46:56.398Z,98713.48
2018-03-17T08:49:23.233Z,98701.02
2018-03-17T08:51:49.799Z,98709.09
2018-03-17T08:54:16.201Z,98696.42
2018-03-17T08:56:42.594Z,98699.64
2018-03-17T08:59:09.003Z,98700.51
2018-03-17T09:01:35.386Z,98702.29
2018-03-17T09:04:01.841Z,98697.36
2018-03-17T09:06:28.273Z,98703.62
2018-03-17T09:08:54.666Z,98706.30
2018-03-17T09:11:21.097Z,98702.59
2018-03-17T09:13:47.442Z,98696.73
2018-03-17T09:16:13.798Z,98686.98
2018-03-17T09:18:40.209Z,98684.58
2018-03-17T09:21:06.570Z,98677.31
2018-03-17T09:23:32.914Z,98676.31
2018-03-17T09:25:59.314Z,98678.06
2018-03-17T09:28:25.734Z,98677.55
2018-03-17T09:30:52.113Z,98668.79
2018-03-17T09:33:18.577Z,98666.25
2018-03-17T09:35:44.986Z,98668.27
2018-03-17T09:38:11.385Z,98667.05
2018-03-17T09:40:37.750Z,98675.46
2018-03-17T09:43:04.191Z,98675.27
2018-03-17T09:45:30.982Z,98662.19
2018-03-17T09:47:57.350Z,98660.91
2018-03-17T09:50:23.738Z,98646.78
2018-03-17T09:52:50.118Z,98671.57
2018-03-17T09:55:16.527Z,98643.52
2018-03-17T09:57:42.922Z,98647.34
2018-03-17T10:00:09.290Z,98640.18
2018-03-17T10:02:35.642Z,98637.78
2018-03-17T10:05:02.014Z,98638.03
2018-03-17T10:07:28.389Z,98632.13
2018-03-17T10:09:54.798Z,98627.38
2018-03-17T10:12:21.214Z,98624.95
2018-03-17T10:14:47.619Z,98637.78
2018-03-17T10:17:14.069Z,98637.92
2018-03-17T10:19:40.409Z,98634.03
2018-03-17T10:22:06.758Z,98646.88
2018-03-17T10:24:33.091Z,98640.94
2018-03-17T10:26:59.722Z,98636.88
2018-03-17T10:29:26.849Z,98641.79
2018-03-17T10:31:53.397Z,98627.38
2018-03-17T10:34:19.727Z,98632.34
2018-03-17T10:36:46.152Z,98629.27
2018-03-17T10:39:12.514Z,98616.30
2018-03-17T10:41:38.921Z,98609.30
2018-03-17T10:44:05.294Z,98625.96
2018-03-17T10:46:31.651Z,98616.07
2018-03-17T10:48:58.086Z,98607.69
2018-03-17T10:51:24.498Z,98607.41
2018-03-17T10:53:50.885Z,98603.28
2018-03-17T10:56:17.275Z,98597.98
2018-03-17T10:58:43.670Z,98587.21
2018-03-17T11:01:16.081Z,98586.09
2018-03-17T11:03:42.443Z,98609.50
2018-03-17T11:06:08.907Z,98585.20
2018-03-17T11:08:35.406Z,98557.36
2018-03-17T11:11:01.802Z,98547.15
2018-03-17T11:13:28.171Z,98530.48
2018-03-17T11:15:54.558Z,98526.86
2018-03-17T11:18:20.888Z,98514.45
2018-03-17T11:20:47.277Z,98518.05
2018-03-17T11:23:13.665Z,98518.77
2018-03-17T11:25:40.043Z,98518.52
2018-03-17T11:28:06.438Z,98517.73
2018-03-17T11:30:33.014Z,98521.33
2018-03-17T11:32:59.469Z,98512.67
2018-03-17T11:35:25.885Z,98495.99
2018-03-17T11:37:52.244Z,98485.88
2018-03-17T11:40:18.622Z,98474.25
2018-03-17T11:42:45.053Z,98466.41
2018-03-17T11:45:11.414Z,98474.50
2018-03-17T11:47:37.758Z,98479.84
2018-03-17T11:50:04.119Z,98481.84
2018-03-17T11:52:30.586Z,98463.91
2018-03-17T11:54:56.993Z,98452.88
2018-03-17T11:57:23.350Z,98450.72
2018-03-17T11:59:49.694Z,98451.58
2018-03-17T12:02:16.138Z,98450.72
2018-03-17T12:04:42.486Z,98451.07
2018-03-17T12:07:08.914Z,98458.72
2018-03-17T12:09:35.354Z,98459.23
2018-03-17T12:12:01.710Z,98484.30
2018-03-17T12:14:28.091Z,98493.00
2018-03-17T12:16:54.487Z,98510.09
2018-03-17T12:19:20.850Z,98500.28
2018-03-17T12:21:47.217Z,98493.82
2018-03-17T12:24:13.573Z,98502.45
2018-03-17T12:26:39.982Z,98502.14
2018-03-17T12:29:06.459Z,98488.38
2018-03-17T12:31:32.778Z,98494.48
2018-03-17T12:33:59.210Z,98500.98
2018-03-17T12:36:25.595Z,98495.66
2018-03-17T12:38:51.941Z,98523.93
2018-03-17T12:41:18.962Z,98535.51
2018-03-17T12:43:45.394Z,98538.95
2018-03-17T12:46:11.822Z,98552.03
2018-03-17T12:48:38.234Z,98536.02
2018-03-17T12:51:04.695Z,98564.16
2018-03-17T12:53:31.077Z,98538.10
2018-03-17T12:55:57.558Z,98534.08
2018-03-17T12:58:24.147Z,98516.98
2018-03-17T13:00:50.594Z,98512.54
2018-03-17T13:03:16.955Z,98503.44
2018-03-17T13:05:43.346Z,98500.27
2018-03-17T13:08:09.700Z,98503.45
2018-03-17T13:10:36.196Z,98492.31
2018-03-17T13:13:02.589Z,98490.53
2018-03-17T13:15:28.959Z,98480.86
2018-03-17T13:17:55.327Z,98485.77
2018-03-17T13:20:21.699Z,98478.91
2018-03-17T13:23:00.356Z,98482.27
2018-03-17T13:25:26.854Z,98477.14
2018-03-17T13:28:05.372Z,98465.61
2018-03-17T13:30:31.654Z,98460.36
2018-03-17T13:32:58.310Z,98456.78
2018-03-17T13:35:36.797Z,98438.11
2018-03-17T13:38:03.146Z,98432.49
2018-03-17T13:40:31.481Z,98423.30
2018-03-17T13:42:57.873Z,98423.41
2018-03-17T13:45:24.230Z,98415.47
2018-03-17T13:47:50.582Z,98406.06
2018-03-17T13:50:17.244Z,98381.96
2018-03-17T13:52:43.631Z,98379.52
2018-03-17T13:55:09.975Z,98372.19
2018-03-17T13:57:36.382Z,98385.81
2018-03-17T14:00:02.815Z,98382.99
2018-03-17T14:02:29.270Z,98369.59
2018-03-17T14:04:55.659Z,98362.31
2018-03-17T14:07:22.001Z,98381.64
2018-03-17T14:09:48.330Z,98369.00
2018-03-17T14:12:14.768Z,98373.82
2018-03-17T14:14:41.118Z,98364.67
2018-03-17T14:17:07.603Z,98364.56
2018-03-17T14:19:33.974Z,98370.34
2018-03-17T14:22:00.325Z,98366.22
2018-03-17T14:24:26.998Z,98363.42
2018-03-17T14:26:53.342Z,98341.56
2018-03-17T14:29:19.721Z,98334.06
2018-03-17T14:31:46.046Z,98333.11
2018-03-17T14:34:12.425Z,98327.13
2018-03-17T14:36:38.790Z,98329.52
2018-03-17T14:39:05.230Z,98324.13
2018-03-17T14:41:31.598Z,98313.73
2018-03-17T14:43:57.940Z,98292.94
2018-03-17T14:46:24.298Z,98296.58
2018-03-17T14:48:50.677Z,98294.33
2018-03-17T14:51:17.036Z,98276.91
2018-03-17T14:53:43.509Z,98289.73
2018-03-17T14:56:09.874Z,98299.64
2018-03-17T14:58:36.310Z,98319.52
2018-03-17T15:01:02.687Z,98309.41
2018-03-17T15:03:29.065Z,98341.47
2018-03-17T15:05:55.489Z,98326.33
2018-03-17T15:08:21.909Z,98324.30
2018-03-17T15:10:48.314Z,98335.25
2018-03-17T15:13:14.691Z,98318.14
2018-03-17T15:15:41.021Z,98320.72
2018-03-17T15:18:07.370Z,98321.22
2018-03-17T15:20:33.717Z,98318.38
2018-03-17T15:23:00.050Z,98321.59
2018-03-17T15:25:26.445Z,98338.19
2018-03-17T15:27:52.853Z,98343.72
2018-03-17T15:30:19.304Z,98346.45
2018-03-17T15:32:45.660Z,98346.03
2018-03-17T15:35:12.079Z,98353.34
2018-03-17T15:37:38.441Z,98372.06
2018-03-17T15:40:04.820Z,98367.78
2018-03-17T15:42:31.153Z,98373.62
2018-03-17T15:44:57.494Z,98373.91
2018-03-17T15:47:23.945Z,98389.59
2018-03-17T15:49:50.322Z,98378.13
2018-03-17T15:52:16.662Z,98369.41
2018-03-17T15:54:43.105Z,98375.83
2018-03-17T15:57:09.440Z,98347.77
2018-03-17T15:59:35.802Z,98357.77
2018-03-17T16:02:03.030Z,98364.64
2018-03-17T16:04:29.370Z,98360.50
2018-03-17T16:06:55.704Z,98361.33
2018-03-17T16:09:22.187Z,98342.74
2018-03-17T16:11:48.534Z,98350.03
2018-03-17T16:14:14.911Z,98359.08
2018-03-17T16:16:41.398Z,98360.76
2018-03-17T16:19:10.316Z,98356.35
2018-03-17T16:21:36.930Z,98350.42
2018-03-17T16:24:03.350Z,98358.23
2018-03-17T16:26:29.836Z,98356.55
2018-03-17T16:28:56.389Z,98349.13
2018-03-17T16:31:23.514Z,98357.02
2018-03-17T16:33:49.881Z,98356.09
2018-03-17T16:36:16.249Z,98353.36
2018-03-17T16:38:42.601Z,98352.23
2018-03-17T16:41:09.078Z,98353.59
2018-03-17T16:43:35.454Z,98359.78
2018-03-17T16:46:01.850Z,98357.54
2018-03-17T16:48:28.215Z,98340.23
2018-03-17T16:50:54.636Z,98326.22
2018-03-17T16:53:21.042Z,98332.41
2018-03-17T16:55:47.430Z,98311.18
2018-03-17T16:58:13.769Z,98300.69
2018-03-17T17:00:40.246Z,98293.20
2018-03-17T17:03:06.758Z,98296.98
2018-03-17T17:05:33.115Z,98290.52
2018-03-17T17:07:59.754Z,98293.28
2018-03-17T17:10:26.282Z,98284.27
2018-03-17T17:12:52.679Z,98293.17
2018-03-17T17:15:19.062Z,98299.80
2018-03-17T17:17:45.499Z,98290.61
2018-03-17T17:20:12.029Z,98293.95
2018-03-17T17:22:38.424Z,98290.39
2018-03-17T17:25:04.994Z,98288.30
2018-03-17T17:27:31.454Z,98288.78
2018-03-17T17:29:57.967Z,98281.07
2018-03-17T17:32:24.382Z,98294.77
2018-03-17T17:34:50.725Z,98305.78
2018-03-17T17:37:17.086Z,98303.45
2018-03-17T17:39:43.449Z,98308.39
2018-03-17T17:42:09.844Z,98313.44
2018-03-17T17:44:36.345Z,98302.44
2018-03-17T17:47:02.718Z,98296.69
2018-03-17T17:49:29.107Z,98299.77
2018-03-17T17:51:55.490Z,98289.19
2018-03-17T17:54:22.036Z,98298.40
2018-03-17T17:56:48.377Z,98286.28
2018-03-17T17:59:14.777Z,98287.66
2018-03-17T18:01:41.164Z,98279.33
2018-03-17T18:04:16.257Z,98288.35
2018-03-17T18:06:47.530Z,98292.53
2018-03-17T18:09:13.878Z,98291.34
2018-03-17T18:11:40.262Z,98303.16
2018-03-17T18:14:06.610Z,98289.50
2018-03-17T18:16:32.982Z,98313.02
2018-03-17T18:18:59.464Z,98307.98
2018-03-17T18:21:25.915Z,98289.08
2018-03-17T18:23:52.406Z,98300.79
2018-03-17T18:26:18.790Z,98301.34
2018-03-17T18:28:45.151Z,98308.20
2018-03-17T18:31:11.520Z,98310.07
2018-03-17T18:33:37.939Z,98309.41
2018-03-17T18:36:04.334Z,98321.36
2018-03-17T18:38:30.749Z,98321.05
2018-03-17T18:40:57.230Z,98313.81
2018-03-17T18:43:23.629Z,98324.73
2018-03-17T18:45:50.211Z,98319.72
2018-03-17T18:48:16.652Z,98318.32
2018-03-17T18:50:43.058Z,98332.80
2018-03-17T18:53:09.428Z,98337.56
2018-03-17T18:55:35.786Z,98331.75
2018-03-17T18:58:02.258Z,98326.66
2018-03-17T19:00:28.641Z,98327.11
2018-03-17T19:02:54.976Z,98321.59
2018-03-17T19:05:21.350Z,98326.56
2018-03-17T19:07:47.724Z,98326.56
2018-03-17T19:10:14.085Z,98328.33
2018-03-17T19:12:40.478Z,98342.52
2018-03-17T19:15:06.831Z,98343.28
2018-03-17T19:17:33.254Z,98354.62
2018-03-17T19:19:59.603Z,98348.81
2018-03-17T19:22:26.008Z,98349.03
2018-03-17T19:24:52.389Z,98358.92
2018-03-17T19:27:18.726Z,98356.80
2018-03-17T19:29:45.091Z,98345.14
2018-03-17T19:32:11.442Z,98341.59
2018-03-17T19:34:37.782Z,98345.78
2018-03-17T19:37:06.119Z,98331.37
2018-03-17T19:39:32.543Z,98334.27
2018-03-17T19:41:58.914Z,98332.08
2018-03-17T19:44:25.591Z,98319.66
2018-03-17T19:46:53.059Z,98324.55
2018-03-17T19:49:20.603Z,98320.56
2018-03-17T19:51:47.882Z,98313.83
2018-03-17T19:54:14.250Z,98311.22
2018-03-17T19:56:40.642Z,98301.13
2018-03-17T19:59:07.120Z,98299.98
2018-03-17T20:01:33.510Z,98305.76
2018-03-17T20:03:59.846Z,98297.20
2018-03-17T20:06:26.214Z,98302.72
2018-03-17T20:08:52.598Z,98296.23
2018-03-17T20:11:19.042Z,98295.02
2018-03-17T20:13:45.434Z,98304.98
2018-03-17T20:16:11.778Z,98306.53
2018-03-17T20:18:38.143Z,98311.89
2018-03-17T20:21:04.571Z,98310.98
2018-03-17T20:23:30.914Z,98306.38
2018-03-17T20:25:57.270Z,98294.64
2018-03-17T20:28:23.610Z,98291.48
2018-03-17T20:30:49.966Z,98286.41
2018-03-17T20:33:16.285Z,98296.16
2018-03-17T20:35:42.618Z,98294.88
2018-03-17T20:38:08.959Z,98290.80
2018-03-17T20:40:35.319Z,98304.45
2018-03-17T20:43:01.712Z,98299.13
2018-03-17T20:45:28.207Z,98297.73
2018-03-17T20:47:54.627Z,98299.69
2018-03-17T20:50:20.966Z,98303.52
2018-03-17T20:52:47.382Z,98296.06
2018-03-17T20:55:13.718Z,98298.11
2018-03-17T20:57:40.097Z,98279.76
2018-03-17T21:00:06.502Z,98286.22
2018-03-17T21:02:32.870Z,98299.06
2018-03-17T21:04:59.243Z,98288.14
2018-03-17T21:07:25.634Z,98280.59
2018-03-17T21:09:52.052Z,98288.38
2018-03-17T21:12:18.403Z,98283.27
2018-03-17T21:14:44.791Z,98291.12
2018-03-17T21:17:11.147Z,98288.11
2018-03-17T21:19:37.496Z,98286.75
2018-03-17T21:22:03.885Z,98275.77
2018-03-17T21:24:30.238Z,98261.78
2018-03-17T21:26:56.619Z,98272.38
2018-03-17T21:29:23.025Z,98282.27
2018-03-17T21:31:49.435Z,98281.33
2018-03-17T21:34:15.793Z,98282.08
2018-03-17T21:36:42.126Z,98277.41
2018-03-17T21:39:08.491Z,98266.23
2018-03-17T21:41:34.842Z,98260.22
2018-03-17T21:44:01.252Z,98257.04
2018-03-17T21:46:27.598Z,98256.45
2018-03-17T21:48:54.242Z,98245.56
2018-03-17T21:51:20.666Z,98232.36
2018-03-17T21:53:47.033Z,98248.63
2018-03-17T21:56:13.386Z,98243.41
2018-03-17T21:58:39.743Z,98245.67
2018-03-17T22:01:06.114Z,98241.86
2018-03-17T22:03:32.477Z,98259.93
2018-03-17T22:05:58.930Z,98239.33
2018-03-17T22:08:25.286Z,98245.94
2018-03-17T22:10:51.675Z,98229.95
2018-03-17T22:13:18.090Z,98231.98
2018-03-17T22:15:44.462Z,98219.13
2018-03-17T22:18:10.810Z,98215.41
2018-03-17T22:20:37.190Z,98220.85
2018-03-17T22:23:03.594Z,98206.18
2018-03-17T22:25:29.918Z,98199.77
2018-03-17T22:27:56.279Z,98201.52
2018-03-17T22:30:22.642Z,98209.87
2018-03-17T22:32:48.998Z,98203.81
2018-03-17T22:35:15.333Z,98198.70
2018-03-17T22:37:41.693Z,98180.96
2018-03-17T22:40:08.122Z,98186.08
2018-03-17T22:42:34.513Z,98199.00
2018-03-17T22:45:00.863Z,98192.48
2018-03-17T22:47:27.313Z,98191.55
2018-03-17T22:49:53.647Z,98194.14
2018-03-17T22:52:20.035Z,98194.18
2018-03-17T22:54:46.386Z,98200.77
2018-03-17T22:57:12.744Z,98197.18
2018-03-17T22:59:39.089Z,98194.47
2018-03-17T23:02:05.502Z,98204.99
2018-03-17T23:04:31.854Z,98197.39
2018-03-17T23:06:58.198Z,98207.38
2018-03-17T23:09:24.554Z,98188.94
2018-03-17T23:11:50.950Z,98183.53
2018-03-17T23:14:17.321Z,98197.58
2018-03-17T23:16:43.650Z,98192.59
2018-03-17T23:19:10.126Z,98193.02
2018-03-17T23:21:36.462Z,98194.89
2018-03-17T23:24:02.882Z,98203.28
2018-03-17T23:26:29.226Z,98195.12
2018-03-17T23:28:55.678Z,98197.20
2018-03-17T23:31:22.067Z,98193.31
2018-03-17T23:33:48.445Z,98200.95
2018-03-17T23:36:14.841Z,98192.08
2018-03-17T23:38:41.238Z,98196.13
2018-03-17T23:41:07.614Z,98178.52
2018-03-17T23:43:34.026Z,98186.58
2018-03-17T23:46:00.427Z,98171.56
2018-03-17T23:48:26.841Z,98181.27
2018-03-17T23:50:53.315Z,98166.93
2018-03-17T23:53:19.710Z,98162.49
2018-03-17T23:55:46.101Z,98171.03
2018-03-17T23:58:12.535Z,98168.64
